sensor_id;sensor_type;location;lat;lon;timestamp;pressure;altitude;pressure_sealevel;temperature;humidity
55113;BME280;41006;50.920;3.456;2023-08-01T00:00:26;74943.06;;;-147.36;100.00
55113;BME280;41006;50.920;3.456;2023-08-01T00:00:57;74947.09;;;-147.36;100.00
55113;BME280;41006;50.920;3.456;2023-08-01T00:01:30;74949.09;;;-147.36;100.00
55113;BME280;41006;50.920;3.456;2023-08-01T00:02:03;74937.00;;;-147.36;100.00
55113;BME280;41006;50.920;3.456;2023-08-01T00:02:35;74943.06;;;-147.36;100.00
55113;BME280;41006;50.920;3.456;2023-08-01T00:03:06;74955.16;;;-147.36;100.00
55113;BME280;41006;50.920;3.456;2023-08-01T00:03:36;74947.09;;;-147.36;100.00
55113;BME280;41006;50.920;3.456;2023-08-01T00:04:09;74949.09;;;-147.36;100.00
55113;BME280;41006;50.920;3.456;2023-08-01T00:04:42;74941.03;;;-147.36;100.00
55113;BME280;41006;50.920;3.456;2023-08-01T00:05:17;74937.00;;;-147.36;100.00
55113;BME280;41006;50.920;3.456;2023-08-01T00:05:47;74945.06;;;-147.36;100.00
55113;BME280;41006;50.920;3.456;2023-08-01T00:06:20;74943.06;;;-147.36;100.00
55113;BME280;41006;50.920;3.456;2023-08-01T00:06:52;74949.09;;;-147.36;100.00
55113;BME280;41006;50.920;3.456;2023-08-01T00:07:22;74945.06;;;-147.36;100.00
55113;BME280;41006;50.920;3.456;2023-08-01T00:07:55;74945.06;;;-147.36;100.00
55113;BME280;41006;50.920;3.456;2023-08-01T00:08:25;74947.09;;;-147.36;100.00
55113;BME280;41006;50.920;3.456;2023-08-01T00:08:55;74945.06;;;-147.36;100.00
55113;BME280;41006;50.920;3.456;2023-08-01T00:09:30;74953.16;;;-147.36;100.00
55113;BME280;41006;50.920;3.456;2023-08-01T00:10:01;74951.13;;;-147.36;100.00
55113;BME280;41006;50.920;3.456;2023-08-01T00:10:31;74949.09;;;-147.36;100.00
55113;BME280;41006;50.920;3.456;2023-08-01T00:11:06;74937.00;;;-147.36;100.00
55113;BME280;41006;50.920;3.456;2023-08-01T00:11:40;74945.06;;;-147.36;100.00
55113;BME280;41006;50.920;3.456;2023-08-01T00:12:10;74953.16;;;-147.36;100.00
55113;BME280;41006;50.920;3.456;2023-08-01T00:12:43;74953.16;;;-147.36;100.00
55113;BME280;41006;50.920;3.456;2023-08-01T00:13:13;74955.16;;;-147.36;100.00
55113;BME280;41006;50.920;3.456;2023-08-01T00:13:43;74951.13;;;-147.36;100.00
55113;BME280;41006;50.920;3.456;2023-08-01T00:14:17;74941.03;;;-147.36;100.00
55113;BME280;41006;50.920;3.456;2023-08-01T00:14:47;74943.06;;;-147.36;100.00
55113;BME280;41006;50.920;3.456;2023-08-01T00:15:20;74941.03;;;-147.36;100.00
55113;BME280;41006;50.920;3.456;2023-08-01T00:15:55;74947.09;;;-147.36;100.00
55113;BME280;41006;50.920;3.456;2023-08-01T00:16:25;74955.16;;;-147.36;100.00
55113;BME280;41006;50.920;3.456;2023-08-01T00:16:58;74961.22;;;-147.36;100.00
55113;BME280;41006;50.920;3.456;2023-08-01T00:17:28;74965.28;;;-147.36;100.00
55113;BME280;41006;50.920;3.456;2023-08-01T00:18:01;74965.28;;;-147.36;100.00
55113;BME280;41006;50.920;3.456;2023-08-01T00:18:32;74957.19;;;-147.36;100.00
55113;BME280;41006;50.920;3.456;2023-08-01T00:19:04;74955.16;;;-147.36;100.00
55113;BME280;41006;50.920;3.456;2023-08-01T00:19:39;74957.19;;;-147.36;100.00
55113;BME280;41006;50.920;3.456;2023-08-01T00:20:10;74949.09;;;-147.36;100.00
55113;BME280;41006;50.920;3.456;2023-08-01T00:20:43;74945.06;;;-147.36;100.00
55113;BME280;41006;50.920;3.456;2023-08-01T00:21:16;74939.00;;;-147.36;100.00
55113;BME280;41006;50.920;3.456;2023-08-01T00:21:46;74928.91;;;-147.36;100.00
55113;BME280;41006;50.920;3.456;2023-08-01T00:22:17;74937.00;;;-147.36;100.00
55113;BME280;41006;50.920;3.456;2023-08-01T00:22:47;74945.06;;;-147.36;100.00
55113;BME280;41006;50.920;3.456;2023-08-01T00:23:18;74941.03;;;-147.36;100.00
55113;BME280;41006;50.920;3.456;2023-08-01T00:23:48;74945.06;;;-147.36;100.00
55113;BME280;41006;50.920;3.456;2023-08-01T00:24:24;74945.06;;;-147.36;100.00
55113;BME280;41006;50.920;3.456;2023-08-01T00:24:55;74953.16;;;-147.36;100.00
55113;BME280;41006;50.920;3.456;2023-08-01T00:25:29;74949.09;;;-147.36;100.00
55113;BME280;41006;50.920;3.456;2023-08-01T00:26:00;74955.16;;;-147.36;100.00
55113;BME280;41006;50.920;3.456;2023-08-01T00:26:33;74953.16;;;-147.36;100.00
55113;BME280;41006;50.920;3.456;2023-08-01T00:27:03;74957.19;;;-147.36;100.00
55113;BME280;41006;50.920;3.456;2023-08-01T00:27:39;74961.22;;;-147.36;100.00
55113;BME280;41006;50.920;3.456;2023-08-01T00:28:09;74965.28;;;-147.36;100.00
55113;BME280;41006;50.920;3.456;2023-08-01T00:28:40;74957.19;;;-147.36;100.00
55113;BME280;41006;50.920;3.456;2023-08-01T00:29:12;74957.19;;;-147.36;100.00
55113;BME280;41006;50.920;3.456;2023-08-01T00:29:43;74969.31;;;-147.36;100.00
55113;BME280;41006;50.920;3.456;2023-08-01T00:30:15;74975.38;;;-147.36;100.00
55113;BME280;41006;50.920;3.456;2023-08-01T00:30:48;74973.34;;;-147.36;100.00
55113;BME280;41006;50.920;3.456;2023-08-01T00:31:20;74977.38;;;-147.36;100.00
55113;BME280;41006;50.920;3.456;2023-08-01T00:31:53;74973.34;;;-147.36;100.00
55113;BME280;41006;50.920;3.456;2023-08-01T00:32:24;74969.31;;;-147.36;100.00
55113;BME280;41006;50.920;3.456;2023-08-01T00:32:54;74971.31;;;-147.36;100.00
55113;BME280;41006;50.920;3.456;2023-08-01T00:33:27;74971.31;;;-147.36;100.00
55113;BME280;41006;50.920;3.456;2023-08-01T00:34:02;74973.34;;;-147.36;100.00
55113;BME280;41006;50.920;3.456;2023-08-01T00:34:35;74973.34;;;-147.36;100.00
55113;BME280;41006;50.920;3.456;2023-08-01T00:35:05;74979.41;;;-147.36;100.00
55113;BME280;41006;50.920;3.456;2023-08-01T00:35:38;74979.41;;;-147.36;100.00
55113;BME280;41006;50.920;3.456;2023-08-01T00:36:09;74969.31;;;-147.36;100.00
55113;BME280;41006;50.920;3.456;2023-08-01T00:36:41;74963.25;;;-147.36;100.00
55113;BME280;41006;50.920;3.456;2023-08-01T00:37:17;74971.31;;;-147.36;100.00
55113;BME280;41006;50.920;3.456;2023-08-01T00:37:47;74973.34;;;-147.36;100.00
55113;BME280;41006;50.920;3.456;2023-08-01T00:38:19;74979.41;;;-147.36;100.00
55113;BME280;41006;50.920;3.456;2023-08-01T00:38:50;74977.38;;;-147.36;100.00
55113;BME280;41006;50.920;3.456;2023-08-01T00:39:22;74977.38;;;-147.36;100.00
55113;BME280;41006;50.920;3.456;2023-08-01T00:39:53;74973.34;;;-147.36;100.00
55113;BME280;41006;50.920;3.456;2023-08-01T00:40:23;74975.38;;;-147.36;100.00
55113;BME280;41006;50.920;3.456;2023-08-01T00:40:54;74969.31;;;-147.36;100.00
55113;BME280;41006;50.920;3.456;2023-08-01T00:41:27;74971.31;;;-147.36;100.00
55113;BME280;41006;50.920;3.456;2023-08-01T00:41:57;74965.28;;;-147.36;100.00
55113;BME280;41006;50.920;3.456;2023-08-01T00:42:29;74959.22;;;-147.36;100.00
55113;BME280;41006;50.920;3.456;2023-08-01T00:43:00;74957.19;;;-147.36;100.00
55113;BME280;41006;50.920;3.456;2023-08-01T00:43:35;74965.28;;;-147.36;100.00
55113;BME280;41006;50.920;3.456;2023-08-01T00:44:05;74965.28;;;-147.36;100.00
55113;BME280;41006;50.920;3.456;2023-08-01T00:44:36;74971.31;;;-147.36;100.00
55113;BME280;41006;50.920;3.456;2023-08-01T00:45:07;74963.25;;;-147.36;100.00
55113;BME280;41006;50.920;3.456;2023-08-01T00:45:39;74961.22;;;-147.36;100.00
55113;BME280;41006;50.920;3.456;2023-08-01T00:46:12;74963.25;;;-147.36;100.00
55113;BME280;41006;50.920;3.456;2023-08-01T00:46:45;74961.22;;;-147.36;100.00
55113;BME280;41006;50.920;3.456;2023-08-01T00:47:18;74973.34;;;-147.36;100.00
55113;BME280;41006;50.920;3.456;2023-08-01T00:47:52;74983.44;;;-147.36;100.00
55113;BME280;41006;50.920;3.456;2023-08-01T00:48:25;74973.34;;;-147.36;100.00
55113;BME280;41006;50.920;3.456;2023-08-01T00:48:56;74979.41;;;-147.36;100.00
55113;BME280;41006;50.920;3.456;2023-08-01T00:49:28;74963.25;;;-147.36;100.00
55113;BME280;41006;50.920;3.456;2023-08-01T00:50:01;74969.31;;;-147.36;100.00
55113;BME280;41006;50.920;3.456;2023-08-01T00:50:34;74977.38;;;-147.36;100.00
55113;BME280;41006;50.920;3.456;2023-08-01T00:51:07;74971.31;;;-147.36;100.00
55113;BME280;41006;50.920;3.456;2023-08-01T00:51:43;74973.34;;;-147.36;100.00
55113;BME280;41006;50.920;3.456;2023-08-01T00:52:16;74961.22;;;-147.36;100.00
55113;BME280;41006;50.920;3.456;2023-08-01T00:52:47;74953.16;;;-147.36;100.00
55113;BME280;41006;50.920;3.456;2023-08-01T00:53:19;74951.13;;;-147.36;100.00
55113;BME280;41006;50.920;3.456;2023-08-01T00:53:49;74951.13;;;-147.36;100.00
55113;BME280;41006;50.920;3.456;2023-08-01T00:54:24;74949.09;;;-147.36;100.00
55113;BME280;41006;50.920;3.456;2023-08-01T00:54:55;74957.19;;;-147.36;100.00
55113;BME280;41006;50.920;3.456;2023-08-01T00:55:29;74961.22;;;-147.36;100.00
55113;BME280;41006;50.920;3.456;2023-08-01T00:55:59;74957.19;;;-147.36;100.00
55113;BME280;41006;50.920;3.456;2023-08-01T00:56:32;74969.31;;;-147.36;100.00
55113;BME280;41006;50.920;3.456;2023-08-01T00:57:05;74959.22;;;-147.36;100.00
55113;BME280;41006;50.920;3.456;2023-08-01T00:57:36;74961.22;;;-147.36;100.00
55113;BME280;41006;50.920;3.456;2023-08-01T00:58:06;74961.22;;;-147.36;100.00
55113;BME280;41006;50.920;3.456;2023-08-01T00:58:39;74961.22;;;-147.36;100.00
55113;BME280;41006;50.920;3.456;2023-08-01T00:59:09;74963.25;;;-147.36;100.00
55113;BME280;41006;50.920;3.456;2023-08-01T00:59:42;74963.25;;;-147.36;100.00
55113;BME280;41006;50.920;3.456;2023-08-01T01:00:15;74971.31;;;-147.36;100.00
55113;BME280;41006;50.920;3.456;2023-08-01T01:00:46;74957.19;;;-147.36;100.00
55113;BME280;41006;50.920;3.456;2023-08-01T01:01:16;74959.22;;;-147.36;100.00
55113;BME280;41006;50.920;3.456;2023-08-01T01:01:46;74953.16;;;-147.36;100.00
55113;BME280;41006;50.920;3.456;2023-08-01T01:02:17;74959.22;;;-147.36;100.00
55113;BME280;41006;50.920;3.456;2023-08-01T01:02:50;74961.22;;;-147.36;100.00
55113;BME280;41006;50.920;3.456;2023-08-01T01:03:26;74955.16;;;-147.36;100.00
55113;BME280;41006;50.920;3.456;2023-08-01T01:03:56;74959.22;;;-147.36;100.00
55113;BME280;41006;50.920;3.456;2023-08-01T01:04:29;74961.22;;;-147.36;100.00
55113;BME280;41006;50.920;3.456;2023-08-01T01:05:02;74979.41;;;-147.36;100.00
55113;BME280;41006;50.920;3.456;2023-08-01T01:05:36;74973.34;;;-147.36;100.00
55113;BME280;41006;50.920;3.456;2023-08-01T01:06:20;74969.31;;;-147.36;100.00
55113;BME280;41006;50.920;3.456;2023-08-01T01:07:06;74973.34;;;-147.36;100.00
55113;BME280;41006;50.920;3.456;2023-08-01T01:07:37;74969.31;;;-147.36;100.00
55113;BME280;41006;50.920;3.456;2023-08-01T01:08:10;74969.31;;;-147.36;100.00
55113;BME280;41006;50.920;3.456;2023-08-01T01:08:41;74961.22;;;-147.36;100.00
55113;BME280;41006;50.920;3.456;2023-08-01T01:09:16;74957.19;;;-147.36;100.00
55113;BME280;41006;50.920;3.456;2023-08-01T01:09:52;74961.22;;;-147.36;100.00
55113;BME280;41006;50.920;3.456;2023-08-01T01:10:25;74957.19;;;-147.36;100.00
55113;BME280;41006;50.920;3.456;2023-08-01T01:10:55;74949.09;;;-147.36;100.00
55113;BME280;41006;50.920;3.456;2023-08-01T01:11:28;74951.13;;;-147.36;100.00
55113;BME280;41006;50.920;3.456;2023-08-01T01:11:59;74961.22;;;-147.36;100.00
55113;BME280;41006;50.920;3.456;2023-08-01T01:12:29;74957.19;;;-147.36;100.00
55113;BME280;41006;50.920;3.456;2023-08-01T01:13:00;74973.34;;;-147.36;100.00
55113;BME280;41006;50.920;3.456;2023-08-01T01:13:30;74969.31;;;-147.36;100.00
55113;BME280;41006;50.920;3.456;2023-08-01T01:14:03;74973.34;;;-147.36;100.00
55113;BME280;41006;50.920;3.456;2023-08-01T01:14:36;74971.31;;;-147.36;100.00
55113;BME280;41006;50.920;3.456;2023-08-01T01:15:09;74977.38;;;-147.36;100.00
55113;BME280;41006;50.920;3.456;2023-08-01T01:15:41;74971.31;;;-147.36;100.00
55113;BME280;41006;50.920;3.456;2023-08-01T01:16:16;74971.31;;;-147.36;100.00
55113;BME280;41006;50.920;3.456;2023-08-01T01:16:48;74973.34;;;-147.36;100.00
55113;BME280;41006;50.920;3.456;2023-08-01T01:17:19;74969.31;;;-147.36;100.00
55113;BME280;41006;50.920;3.456;2023-08-01T01:17:49;74973.34;;;-147.36;100.00
55113;BME280;41006;50.920;3.456;2023-08-01T01:18:22;74973.34;;;-147.36;100.00
55113;BME280;41006;50.920;3.456;2023-08-01T01:18:55;74973.34;;;-147.36;100.00
55113;BME280;41006;50.920;3.456;2023-08-01T01:19:25;74979.41;;;-147.36;100.00
55113;BME280;41006;50.920;3.456;2023-08-01T01:19:55;74979.41;;;-147.36;100.00
55113;BME280;41006;50.920;3.456;2023-08-01T01:20:38;74979.41;;;-147.36;100.00
55113;BME280;41006;50.920;3.456;2023-08-01T01:21:15;74989.50;;;-147.36;100.00
55113;BME280;41006;50.920;3.456;2023-08-01T01:21:51;74977.38;;;-147.36;100.00
55113;BME280;41006;50.920;3.456;2023-08-01T01:22:21;74991.53;;;-147.36;100.00
55113;BME280;41006;50.920;3.456;2023-08-01T01:22:55;74989.50;;;-147.36;100.00
55113;BME280;41006;50.920;3.456;2023-08-01T01:23:29;74983.44;;;-147.36;100.00
55113;BME280;41006;50.920;3.456;2023-08-01T01:24:02;74989.50;;;-147.36;100.00
55113;BME280;41006;50.920;3.456;2023-08-01T01:24:36;74989.50;;;-147.36;100.00
55113;BME280;41006;50.920;3.456;2023-08-01T01:25:09;74981.44;;;-147.36;100.00
55113;BME280;41006;50.920;3.456;2023-08-01T01:25:40;74985.47;;;-147.36;100.00
55113;BME280;41006;50.920;3.456;2023-08-01T01:26:14;74985.47;;;-147.36;100.00
55113;BME280;41006;50.920;3.456;2023-08-01T01:26:47;74987.50;;;-147.36;100.00
55113;BME280;41006;50.920;3.456;2023-08-01T01:27:22;74981.44;;;-147.36;100.00
55113;BME280;41006;50.920;3.456;2023-08-01T01:27:53;74985.47;;;-147.36;100.00
55113;BME280;41006;50.920;3.456;2023-08-01T01:28:24;74985.47;;;-147.36;100.00
55113;BME280;41006;50.920;3.456;2023-08-01T01:28:57;74985.47;;;-147.36;100.00
55113;BME280;41006;50.920;3.456;2023-08-01T01:29:29;74993.53;;;-147.36;100.00
55113;BME280;41006;50.920;3.456;2023-08-01T01:30:00;74995.56;;;-147.36;100.00
55113;BME280;41006;50.920;3.456;2023-08-01T01:30:35;74989.50;;;-147.36;100.00
55113;BME280;41006;50.920;3.456;2023-08-01T01:31:06;74989.50;;;-147.36;100.00
55113;BME280;41006;50.920;3.456;2023-08-01T01:31:37;74991.53;;;-147.36;100.00
55113;BME280;41006;50.920;3.456;2023-08-01T01:32:07;74989.50;;;-147.36;100.00
55113;BME280;41006;50.920;3.456;2023-08-01T01:32:41;74989.50;;;-147.36;100.00
55113;BME280;41006;50.920;3.456;2023-08-01T01:33:12;74993.53;;;-147.36;100.00
55113;BME280;41006;50.920;3.456;2023-08-01T01:33:48;74989.50;;;-147.36;100.00
55113;BME280;41006;50.920;3.456;2023-08-01T01:34:19;74993.53;;;-147.36;100.00
55113;BME280;41006;50.920;3.456;2023-08-01T01:34:50;74997.59;;;-147.36;100.00
55113;BME280;41006;50.920;3.456;2023-08-01T01:35:20;74993.53;;;-147.36;100.00
55113;BME280;41006;50.920;3.456;2023-08-01T01:35:53;74989.50;;;-147.36;100.00
55113;BME280;41006;50.920;3.456;2023-08-01T01:36:24;74997.59;;;-147.36;100.00
55113;BME280;41006;50.920;3.456;2023-08-01T01:36:58;74995.56;;;-147.36;100.00
55113;BME280;41006;50.920;3.456;2023-08-01T01:37:33;74989.50;;;-147.36;100.00
55113;BME280;41006;50.920;3.456;2023-08-01T01:38:06;74985.47;;;-147.36;100.00
55113;BME280;41006;50.920;3.456;2023-08-01T01:38:36;74993.53;;;-147.36;100.00
55113;BME280;41006;50.920;3.456;2023-08-01T01:39:09;74999.59;;;-147.36;100.00
55113;BME280;41006;50.920;3.456;2023-08-01T01:39:42;74997.59;;;-147.36;100.00
55113;BME280;41006;50.920;3.456;2023-08-01T01:40:12;74999.59;;;-147.36;100.00
55113;BME280;41006;50.920;3.456;2023-08-01T01:40:47;75003.66;;;-147.36;100.00
55113;BME280;41006;50.920;3.456;2023-08-01T01:41:25;74997.59;;;-147.36;100.00
55113;BME280;41006;50.920;3.456;2023-08-01T01:41:55;74997.59;;;-147.36;100.00
55113;BME280;41006;50.920;3.456;2023-08-01T01:42:28;74999.59;;;-147.36;100.00
55113;BME280;41006;50.920;3.456;2023-08-01T01:43:01;75003.66;;;-147.36;100.00
55113;BME280;41006;50.920;3.456;2023-08-01T01:43:33;75001.63;;;-147.36;100.00
55113;BME280;41006;50.920;3.456;2023-08-01T01:44:07;74993.53;;;-147.36;100.00
55113;BME280;41006;50.920;3.456;2023-08-01T01:44:42;74993.53;;;-147.36;100.00
55113;BME280;41006;50.920;3.456;2023-08-01T01:45:13;74995.56;;;-147.36;100.00
55113;BME280;41006;50.920;3.456;2023-08-01T01:45:48;75003.66;;;-147.36;100.00
55113;BME280;41006;50.920;3.456;2023-08-01T01:46:18;75013.75;;;-147.36;100.00
55113;BME280;41006;50.920;3.456;2023-08-01T01:46:51;75011.72;;;-147.36;100.00
55113;BME280;41006;50.920;3.456;2023-08-01T01:47:23;75009.69;;;-147.36;100.00
55113;BME280;41006;50.920;3.456;2023-08-01T01:47:54;75011.72;;;-147.36;100.00
55113;BME280;41006;50.920;3.456;2023-08-01T01:48:24;75017.78;;;-147.36;100.00
55113;BME280;41006;50.920;3.456;2023-08-01T01:48:54;75021.81;;;-147.36;100.00
55113;BME280;41006;50.920;3.456;2023-08-01T01:49:27;75011.72;;;-147.36;100.00
55113;BME280;41006;50.920;3.456;2023-08-01T01:50:02;75007.69;;;-147.36;100.00
55113;BME280;41006;50.920;3.456;2023-08-01T01:50:35;75019.81;;;-147.36;100.00
55113;BME280;41006;50.920;3.456;2023-08-01T01:51:06;75021.81;;;-147.36;100.00
55113;BME280;41006;50.920;3.456;2023-08-01T01:51:39;75021.81;;;-147.36;100.00
55113;BME280;41006;50.920;3.456;2023-08-01T01:52:09;75017.78;;;-147.36;100.00
55113;BME280;41006;50.920;3.456;2023-08-01T01:52:40;75021.81;;;-147.36;100.00
55113;BME280;41006;50.920;3.456;2023-08-01T01:53:15;75021.81;;;-147.36;100.00
55113;BME280;41006;50.920;3.456;2023-08-01T01:53:48;75021.81;;;-147.36;100.00
55113;BME280;41006;50.920;3.456;2023-08-01T01:54:23;75025.84;;;-147.36;100.00
55113;BME280;41006;50.920;3.456;2023-08-01T01:54:56;75021.81;;;-147.36;100.00
55113;BME280;41006;50.920;3.456;2023-08-01T01:55:28;75013.75;;;-147.36;100.00
55113;BME280;41006;50.920;3.456;2023-08-01T01:55:59;75013.75;;;-147.36;100.00
55113;BME280;41006;50.920;3.456;2023-08-01T01:56:29;75013.75;;;-147.36;100.00
55113;BME280;41006;50.920;3.456;2023-08-01T01:57:02;75013.75;;;-147.36;100.00
55113;BME280;41006;50.920;3.456;2023-08-01T01:57:36;75017.78;;;-147.36;100.00
55113;BME280;41006;50.920;3.456;2023-08-01T01:58:09;75025.84;;;-147.36;100.00
55113;BME280;41006;50.920;3.456;2023-08-01T01:58:39;75025.84;;;-147.36;100.00
55113;BME280;41006;50.920;3.456;2023-08-01T01:59:17;75029.91;;;-147.36;100.00
55113;BME280;41006;50.920;3.456;2023-08-01T01:59:50;75021.81;;;-147.36;100.00
55113;BME280;41006;50.920;3.456;2023-08-01T02:00:23;75019.81;;;-147.36;100.00
55113;BME280;41006;50.920;3.456;2023-08-01T02:00:53;75025.84;;;-147.36;100.00
55113;BME280;41006;50.920;3.456;2023-08-01T02:01:26;75019.81;;;-147.36;100.00
55113;BME280;41006;50.920;3.456;2023-08-01T02:01:58;75025.84;;;-147.36;100.00
55113;BME280;41006;50.920;3.456;2023-08-01T02:02:30;75017.78;;;-147.36;100.00
55113;BME280;41006;50.920;3.456;2023-08-01T02:03:00;75021.81;;;-147.36;100.00
55113;BME280;41006;50.920;3.456;2023-08-01T02:03:32;75021.81;;;-147.36;100.00
55113;BME280;41006;50.920;3.456;2023-08-01T02:04:09;75021.81;;;-147.36;100.00
55113;BME280;41006;50.920;3.456;2023-08-01T02:04:41;75023.84;;;-147.36;100.00
55113;BME280;41006;50.920;3.456;2023-08-01T02:05:14;75025.84;;;-147.36;100.00
55113;BME280;41006;50.920;3.456;2023-08-01T02:05:47;75029.91;;;-147.36;100.00
55113;BME280;41006;50.920;3.456;2023-08-01T02:06:17;75025.84;;;-147.36;100.00
55113;BME280;41006;50.920;3.456;2023-08-01T02:06:48;75029.91;;;-147.36;100.00
55113;BME280;41006;50.920;3.456;2023-08-01T02:07:23;75027.88;;;-147.36;100.00
55113;BME280;41006;50.920;3.456;2023-08-01T02:07:55;75019.81;;;-147.36;100.00
55113;BME280;41006;50.920;3.456;2023-08-01T02:08:28;75025.84;;;-147.36;100.00
55113;BME280;41006;50.920;3.456;2023-08-01T02:08:58;75017.78;;;-147.36;100.00
55113;BME280;41006;50.920;3.456;2023-08-01T02:09:29;75021.81;;;-147.36;100.00
55113;BME280;41006;50.920;3.456;2023-08-01T02:10:02;75025.84;;;-147.36;100.00
55113;BME280;41006;50.920;3.456;2023-08-01T02:10:35;75013.75;;;-147.36;100.00
55113;BME280;41006;50.920;3.456;2023-08-01T02:11:05;75017.78;;;-147.36;100.00
55113;BME280;41006;50.920;3.456;2023-08-01T02:11:42;75011.72;;;-147.36;100.00
55113;BME280;41006;50.920;3.456;2023-08-01T02:12:20;75013.75;;;-147.36;100.00
55113;BME280;41006;50.920;3.456;2023-08-01T02:12:50;75013.75;;;-147.36;100.00
55113;BME280;41006;50.920;3.456;2023-08-01T02:13:23;75009.69;;;-147.36;100.00
55113;BME280;41006;50.920;3.456;2023-08-01T02:13:53;75005.66;;;-147.36;100.00
55113;BME280;41006;50.920;3.456;2023-08-01T02:14:24;75017.78;;;-147.36;100.00
55113;BME280;41006;50.920;3.456;2023-08-01T02:14:54;75023.84;;;-147.36;100.00
55113;BME280;41006;50.920;3.456;2023-08-01T02:15:27;75029.91;;;-147.36;100.00
55113;BME280;41006;50.920;3.456;2023-08-01T02:16:00;75017.78;;;-147.36;100.00
55113;BME280;41006;50.920;3.456;2023-08-01T02:16:30;75023.84;;;-147.36;100.00
55113;BME280;41006;50.920;3.456;2023-08-01T02:17:03;75023.84;;;-147.36;100.00
55113;BME280;41006;50.920;3.456;2023-08-01T02:17:33;75019.81;;;-147.36;100.00
55113;BME280;41006;50.920;3.456;2023-08-01T02:18:04;75019.81;;;-147.36;100.00
55113;BME280;41006;50.920;3.456;2023-08-01T02:18:36;75011.72;;;-147.36;100.00
55113;BME280;41006;50.920;3.456;2023-08-01T02:19:07;75005.66;;;-147.36;100.00
55113;BME280;41006;50.920;3.456;2023-08-01T02:19:42;75013.75;;;-147.36;100.00
55113;BME280;41006;50.920;3.456;2023-08-01T02:20:16;75017.78;;;-147.36;100.00
55113;BME280;41006;50.920;3.456;2023-08-01T02:20:51;75021.81;;;-147.36;100.00
55113;BME280;41006;50.920;3.456;2023-08-01T02:21:23;75017.78;;;-147.36;100.00
55113;BME280;41006;50.920;3.456;2023-08-01T02:21:54;75017.78;;;-147.36;100.00
55113;BME280;41006;50.920;3.456;2023-08-01T02:22:26;75005.66;;;-147.36;100.00
55113;BME280;41006;50.920;3.456;2023-08-01T02:22:59;75013.75;;;-147.36;100.00
55113;BME280;41006;50.920;3.456;2023-08-01T02:23:32;75017.78;;;-147.36;100.00
55113;BME280;41006;50.920;3.456;2023-08-01T02:24:06;75011.72;;;-147.36;100.00
55113;BME280;41006;50.920;3.456;2023-08-01T02:24:36;75017.78;;;-147.36;100.00
55113;BME280;41006;50.920;3.456;2023-08-01T02:25:07;75025.84;;;-147.36;100.00
55113;BME280;41006;50.920;3.456;2023-08-01T02:25:40;75025.84;;;-147.36;100.00
55113;BME280;41006;50.920;3.456;2023-08-01T02:26:11;75019.81;;;-147.36;100.00
55113;BME280;41006;50.920;3.456;2023-08-01T02:26:41;75021.81;;;-147.36;100.00
55113;BME280;41006;50.920;3.456;2023-08-01T02:27:11;75021.81;;;-147.36;100.00
55113;BME280;41006;50.920;3.456;2023-08-01T02:27:42;75025.84;;;-147.36;100.00
55113;BME280;41006;50.920;3.456;2023-08-01T02:28:12;75023.84;;;-147.36;100.00
55113;BME280;41006;50.920;3.456;2023-08-01T02:28:45;75023.84;;;-147.36;100.00
55113;BME280;41006;50.920;3.456;2023-08-01T02:29:17;75021.81;;;-147.36;100.00
55113;BME280;41006;50.920;3.456;2023-08-01T02:29:50;75015.75;;;-147.36;100.00
55113;BME280;41006;50.920;3.456;2023-08-01T02:30:21;75013.75;;;-147.36;100.00
55113;BME280;41006;50.920;3.456;2023-08-01T02:30:51;75023.84;;;-147.36;100.00
55113;BME280;41006;50.920;3.456;2023-08-01T02:31:23;75017.78;;;-147.36;100.00
55113;BME280;41006;50.920;3.456;2023-08-01T02:31:54;75021.81;;;-147.36;100.00
55113;BME280;41006;50.920;3.456;2023-08-01T02:32:25;75021.81;;;-147.36;100.00
55113;BME280;41006;50.920;3.456;2023-08-01T02:33:00;75025.84;;;-147.36;100.00
55113;BME280;41006;50.920;3.456;2023-08-01T02:33:30;75029.91;;;-147.36;100.00
55113;BME280;41006;50.920;3.456;2023-08-01T02:34:03;75017.78;;;-147.36;100.00
55113;BME280;41006;50.920;3.456;2023-08-01T02:34:38;75013.75;;;-147.36;100.00
55113;BME280;41006;50.920;3.456;2023-08-01T02:35:12;75009.69;;;-147.36;100.00
55113;BME280;41006;50.920;3.456;2023-08-01T02:35:42;75007.69;;;-147.36;100.00
55113;BME280;41006;50.920;3.456;2023-08-01T02:36:13;75009.69;;;-147.36;100.00
55113;BME280;41006;50.920;3.456;2023-08-01T02:36:43;75013.75;;;-147.36;100.00
55113;BME280;41006;50.920;3.456;2023-08-01T02:37:14;75013.75;;;-147.36;100.00
55113;BME280;41006;50.920;3.456;2023-08-01T02:37:49;75005.66;;;-147.36;100.00
55113;BME280;41006;50.920;3.456;2023-08-01T02:38:22;75007.69;;;-147.36;100.00
55113;BME280;41006;50.920;3.456;2023-08-01T02:38:52;75011.72;;;-147.36;100.00
55113;BME280;41006;50.920;3.456;2023-08-01T02:39:25;75021.81;;;-147.36;100.00
55113;BME280;41006;50.920;3.456;2023-08-01T02:39:55;75025.84;;;-147.36;100.00
55113;BME280;41006;50.920;3.456;2023-08-01T02:40:26;75015.75;;;-147.36;100.00
55113;BME280;41006;50.920;3.456;2023-08-01T02:41:00;75009.69;;;-147.36;100.00
55113;BME280;41006;50.920;3.456;2023-08-01T02:41:33;75017.78;;;-147.36;100.00
55113;BME280;41006;50.920;3.456;2023-08-01T02:42:06;75015.75;;;-147.36;100.00
55113;BME280;41006;50.920;3.456;2023-08-01T02:42:36;75017.78;;;-147.36;100.00
55113;BME280;41006;50.920;3.456;2023-08-01T02:43:07;75015.75;;;-147.36;100.00
55113;BME280;41006;50.920;3.456;2023-08-01T02:43:42;75013.75;;;-147.36;100.00
55113;BME280;41006;50.920;3.456;2023-08-01T02:44:18;75015.75;;;-147.36;100.00
55113;BME280;41006;50.920;3.456;2023-08-01T02:44:50;75009.69;;;-147.36;100.00